createdAt,value
2022-10-15T16:38:38.328Z,1.17
2022-10-15T16:41:06.298Z,1.53
2022-10-15T16:43:34.609Z,1.10
2022-10-15T16:46:05.218Z,1.10
2022-10-15T16:48:34.112Z,1.10
2022-10-15T16:51:13.563Z,1.30
2022-10-15T16:53:42.927Z,1.10
2022-10-15T16:56:14.081Z,1.40
2022-10-15T16:58:41.756Z,1.10
2022-10-15T17:01:12.431Z,1.20
2022-10-15T17:03:41.146Z,1.10
2022-10-15T17:06:11.198Z,1.03
2022-10-15T17:08:59.565Z,1.17
2022-10-15T17:11:32.903Z,1.00
2022-10-15T17:14:03.733Z,1.10
2022-10-15T17:16:34.209Z,1.10
2022-10-15T17:19:01.878Z,0.93
2022-10-15T17:21:30.228Z,1.03
2022-10-15T17:23:59.857Z,1.10
2022-10-15T17:26:30.333Z,1.20
2022-10-15T17:28:57.831Z,1.00
2022-10-15T17:31:26.750Z,1.10
2022-10-15T17:34:08.567Z,1.10
2022-10-15T17:36:47.432Z,1.20
2022-10-15T17:39:18.598Z,1.00
2022-10-15T17:41:47.600Z,1.13
2022-10-15T17:44:15.397Z,1.00
2022-10-15T17:46:43.067Z,1.13
2022-10-15T17:49:11.299Z,1.00
2022-10-15T17:51:40.520Z,1.07
2022-10-15T17:54:08.479Z,1.10
2022-10-15T17:56:40.248Z,1.20
2022-10-15T17:59:09.313Z,1.10
2022-10-15T18:01:57.833Z,1.17
2022-10-15T18:04:29.876Z,1.20
2022-10-15T18:06:57.576Z,1.30
2022-10-15T18:09:26.575Z,1.27
2022-10-15T18:11:56.792Z,1.20
2022-10-15T18:14:29.388Z,1.40
2022-10-15T18:16:57.332Z,1.40
2022-10-15T18:19:26.734Z,1.50
2022-10-15T18:21:55.531Z,1.90
2022-10-15T18:24:24.064Z,3.17
2022-10-15T18:26:52.601Z,3.40
2022-10-15T18:29:20.636Z,4.50
2022-10-15T18:31:50.282Z,5.47
2022-10-15T18:34:21.640Z,6.57
2022-10-15T18:36:49.454Z,6.53
2022-10-15T18:39:17.403Z,5.97
2022-10-15T18:41:45.483Z,6.77
2022-10-15T18:44:16.804Z,6.93
2022-10-15T18:46:45.738Z,7.70
2022-10-15T18:49:15.544Z,6.63
2022-10-15T18:51:46.148Z,7.20
2022-10-15T18:54:14.585Z,6.83
2022-10-15T18:56:42.977Z,6.13
2022-10-15T18:59:11.036Z,6.50
2022-10-15T19:01:41.870Z,7.03
2022-10-15T19:04:12.426Z,5.90
2022-10-15T19:06:43.378Z,5.93
2022-10-15T19:09:16.096Z,7.03
2022-10-15T19:11:46.127Z,7.50
2022-10-15T19:14:15.877Z,7.50
2022-10-15T19:16:44.259Z,7.70
2022-10-15T19:19:16.105Z,6.20
2022-10-15T19:21:45.200Z,6.13
2022-10-15T19:24:14.737Z,6.10
2022-10-15T19:26:43.134Z,6.07
2022-10-15T19:29:11.139Z,5.03
2022-10-15T19:31:40.961Z,5.57
2022-10-15T19:34:09.043Z,5.50
2022-10-15T19:36:43.277Z,4.90
2022-10-15T19:39:19.367Z,5.00
2022-10-15T19:41:47.571Z,4.80
2022-10-15T19:44:17.086Z,4.80
2022-10-15T19:46:46.728Z,4.40
2022-10-15T19:49:14.717Z,4.17
2022-10-15T19:51:42.622Z,3.90
2022-10-15T19:54:10.458Z,4.20
2022-10-15T19:56:38.151Z,4.30
2022-10-15T19:59:06.462Z,3.87
2022-10-15T20:01:34.677Z,3.77
2022-10-15T20:04:06.216Z,4.13
2022-10-15T20:06:36.386Z,3.70
2022-10-15T20:09:05.136Z,3.80
2022-10-15T20:11:33.089Z,3.30
2022-10-15T20:14:01.263Z,3.40
2022-10-15T20:16:32.678Z,2.90
2022-10-15T20:19:03.108Z,3.30
2022-10-15T20:21:32.624Z,3.13
2022-10-15T20:24:04.408Z,3.00
2022-10-15T20:26:33.048Z,3.10
2022-10-15T20:29:00.749Z,2.87
2022-10-15T20:31:33.035Z,2.87
2022-10-15T20:34:01.613Z,2.90
2022-10-15T20:36:29.840Z,2.47
2022-10-15T20:39:00.733Z,2.63
2022-10-15T20:41:29.163Z,2.60
2022-10-15T20:43:57.190Z,2.40
2022-10-15T20:46:29.907Z,2.57
2022-10-15T20:49:06.084Z,2.73
2022-10-15T20:51:37.808Z,2.20
2022-10-15T20:54:05.577Z,2.33
2022-10-15T20:56:33.276Z,2.40
2022-10-15T20:59:01.105Z,2.40
2022-10-15T21:01:29.009Z,2.63
2022-10-15T21:03:56.720Z,2.60
2022-10-15T21:06:24.561Z,2.20
2022-10-15T21:08:52.445Z,1.97
2022-10-15T21:11:20.428Z,2.30
2022-10-15T21:13:48.309Z,2.20
2022-10-15T21:16:16.434Z,2.33
2022-10-15T21:18:44.462Z,2.00
2022-10-15T21:21:13.246Z,2.10
2022-10-15T21:23:41.874Z,2.03
2022-10-15T21:26:15.150Z,1.93
2022-10-15T21:28:43.687Z,2.00
2022-10-15T21:31:14.374Z,2.30
2022-10-15T21:33:42.815Z,2.00
2022-10-15T21:36:11.976Z,2.17
2022-10-15T21:38:40.006Z,1.77
2022-10-15T21:41:08.226Z,2.10
2022-10-15T21:43:36.288Z,1.80
2022-10-15T21:46:06.027Z,1.83
2022-10-15T21:48:33.997Z,1.90
2022-10-15T21:51:01.604Z,1.60
2022-10-15T21:53:29.241Z,1.63
2022-10-15T21:55:57.006Z,1.73
2022-10-15T21:58:24.665Z,1.70
2022-10-15T22:00:52.736Z,1.70
2022-10-15T22:03:22.660Z,1.60
2022-10-15T22:05:50.445Z,1.73
2022-10-15T22:08:18.059Z,1.60
2022-10-15T22:10:45.977Z,1.57
2022-10-15T22:13:13.536Z,1.50
2022-10-15T22:15:41.225Z,1.70
2022-10-15T22:18:08.846Z,1.73
2022-10-15T22:20:36.614Z,1.60
2022-10-15T22:23:04.472Z,1.60
2022-10-15T22:25:32.362Z,1.60
2022-10-15T22:28:00.173Z,1.67
2022-10-15T22:30:27.927Z,1.60
2022-10-15T22:32:55.608Z,1.40
2022-10-15T22:35:23.356Z,1.57
2022-10-15T22:37:51.583Z,1.33
2022-10-15T22:40:19.426Z,1.57
2022-10-15T22:42:48.526Z,1.63
2022-10-15T22:45:16.478Z,1.33
2022-10-15T22:47:44.208Z,1.73
2022-10-15T22:50:11.897Z,1.40
2022-10-15T22:52:39.748Z,1.30
2022-10-15T22:55:07.939Z,1.30
2022-10-15T22:57:36.046Z,1.43
2022-10-15T23:00:05.364Z,1.40
2022-10-15T23:02:33.090Z,1.30
2022-10-15T23:05:01.217Z,1.20
2022-10-15T23:07:28.894Z,1.23
2022-10-15T23:09:56.563Z,1.20
2022-10-15T23:12:24.493Z,1.30
2022-10-15T23:14:52.960Z,1.37
2022-10-15T23:17:20.694Z,1.20
2022-10-15T23:19:49.315Z,1.20
2022-10-15T23:22:17.052Z,1.20
2022-10-15T23:24:44.722Z,1.20
2022-10-15T23:27:13.283Z,1.27
2022-10-15T23:29:41.119Z,1.33
2022-10-15T23:32:09.854Z,1.30
2022-10-15T23:34:37.618Z,1.20
2022-10-15T23:37:05.062Z,1.17
2022-10-15T23:39:32.688Z,1.10
2022-10-15T23:42:00.252Z,1.27
2022-10-15T23:44:28.490Z,1.10
2022-10-15T23:46:56.047Z,1.30
2022-10-15T23:49:23.597Z,1.20
2022-10-15T23:51:51.106Z,1.30
2022-10-15T23:54:19.023Z,1.20
2022-10-15T23:56:47.547Z,1.23
2022-10-15T23:59:16.577Z,1.10
